sensor_id;sensor_type;location;lat;lon;timestamp;temperature;humidity
45115;DHT22;30877;43.706;10.780;2023-04-29T00:01:38;17.20;96.70
45115;DHT22;30877;43.706;10.780;2023-04-29T00:04:06;17.10;96.70
45115;DHT22;30877;43.706;10.780;2023-04-29T00:06:36;17.10;96.70
45115;DHT22;30877;43.706;10.780;2023-04-29T00:09:04;17.20;96.70
45115;DHT22;30877;43.706;10.780;2023-04-29T00:11:34;17.30;96.70
45115;DHT22;30877;43.706;10.780;2023-04-29T00:14:02;17.30;96.70
45115;DHT22;30877;43.706;10.780;2023-04-29T00:16:30;17.30;96.70
45115;DHT22;30877;43.706;10.780;2023-04-29T00:18:58;17.30;96.70
45115;DHT22;30877;43.706;10.780;2023-04-29T00:21:26;17.30;96.70
45115;DHT22;30877;43.706;10.780;2023-04-29T00:23:55;17.30;96.70
45115;DHT22;30877;43.706;10.780;2023-04-29T00:26:23;17.20;96.70
45115;DHT22;30877;43.706;10.780;2023-04-29T00:28:53;17.30;96.70
45115;DHT22;30877;43.706;10.780;2023-04-29T00:31:21;17.40;96.70
45115;DHT22;30877;43.706;10.780;2023-04-29T00:33:49;17.40;96.70
45115;DHT22;30877;43.706;10.780;2023-04-29T00:36:17;17.50;96.70
45115;DHT22;30877;43.706;10.780;2023-04-29T00:38:45;17.50;96.70
45115;DHT22;30877;43.706;10.780;2023-04-29T00:41:13;17.50;96.70
45115;DHT22;30877;43.706;10.780;2023-04-29T00:43:42;17.50;96.70
45115;DHT22;30877;43.706;10.780;2023-04-29T00:46:11;17.60;96.70
45115;DHT22;30877;43.706;10.780;2023-04-29T00:48:40;17.60;96.70
45115;DHT22;30877;43.706;10.780;2023-04-29T00:51:09;17.60;96.70
45115;DHT22;30877;43.706;10.780;2023-04-29T00:53:38;17.60;96.70
45115;DHT22;30877;43.706;10.780;2023-04-29T00:56:06;17.60;96.70
45115;DHT22;30877;43.706;10.780;2023-04-29T00:58:36;17.40;96.70
45115;DHT22;30877;43.706;10.780;2023-04-29T01:01:06;17.40;96.70
45115;DHT22;30877;43.706;10.780;2023-04-29T01:03:35;17.30;96.70
45115;DHT22;30877;43.706;10.780;2023-04-29T01:06:10;17.30;96.70
45115;DHT22;30877;43.706;10.780;2023-04-29T01:08:47;17.30;96.70
45115;DHT22;30877;43.706;10.780;2023-04-29T01:11:22;17.30;96.70
45115;DHT22;30877;43.706;10.780;2023-04-29T01:13:58;17.30;96.70
45115;DHT22;30877;43.706;10.780;2023-04-29T01:16:36;17.30;96.70
45115;DHT22;30877;43.706;10.780;2023-04-29T01:19:18;17.20;96.70
45115;DHT22;30877;43.706;10.780;2023-04-29T01:21:49;17.20;96.70
45115;DHT22;30877;43.706;10.780;2023-04-29T01:24:18;17.20;96.70
45115;DHT22;30877;43.706;10.780;2023-04-29T01:26:53;17.20;96.70
45115;DHT22;30877;43.706;10.780;2023-04-29T01:29:44;17.20;96.70
45115;DHT22;30877;43.706;10.780;2023-04-29T01:32:17;17.20;96.70
45115;DHT22;30877;43.706;10.780;2023-04-29T01:34:53;17.10;96.70
45115;DHT22;30877;43.706;10.780;2023-04-29T01:37:31;17.10;96.70
45115;DHT22;30877;43.706;10.780;2023-04-29T01:40:11;17.10;96.70
45115;DHT22;30877;43.706;10.780;2023-04-29T01:42:47;17.10;96.70
45115;DHT22;30877;43.706;10.780;2023-04-29T01:45:20;17.10;96.70
45115;DHT22;30877;43.706;10.780;2023-04-29T01:47:51;17.10;96.70
45115;DHT22;30877;43.706;10.780;2023-04-29T01:50:20;17.10;96.70
45115;DHT22;30877;43.706;10.780;2023-04-29T01:52:49;17.10;96.70
45115;DHT22;30877;43.706;10.780;2023-04-29T01:55:19;17.00;96.70
45115;DHT22;30877;43.706;10.780;2023-04-29T01:57:55;16.90;96.70
45115;DHT22;30877;43.706;10.780;2023-04-29T02:00:43;16.80;96.70
45115;DHT22;30877;43.706;10.780;2023-04-29T02:03:12;16.90;96.70
45115;DHT22;30877;43.706;10.780;2023-04-29T02:05:44;16.90;96.70
45115;DHT22;30877;43.706;10.780;2023-04-29T02:08:12;17.00;96.70
45115;DHT22;30877;43.706;10.780;2023-04-29T02:10:52;17.00;96.70
45115;DHT22;30877;43.706;10.780;2023-04-29T02:13:36;17.10;96.70
45115;DHT22;30877;43.706;10.780;2023-04-29T02:16:08;17.10;96.70
45115;DHT22;30877;43.706;10.780;2023-04-29T02:18:41;17.10;96.70
45115;DHT22;30877;43.706;10.780;2023-04-29T02:21:09;17.00;96.70
45115;DHT22;30877;43.706;10.780;2023-04-29T02:23:39;17.00;96.70
45115;DHT22;30877;43.706;10.780;2023-04-29T02:26:08;17.00;96.70
45115;DHT22;30877;43.706;10.780;2023-04-29T02:28:37;17.00;96.70
45115;DHT22;30877;43.706;10.780;2023-04-29T02:31:05;16.90;96.70
45115;DHT22;30877;43.706;10.780;2023-04-29T02:33:33;16.90;96.70
45115;DHT22;30877;43.706;10.780;2023-04-29T02:36:01;16.90;96.70
45115;DHT22;30877;43.706;10.780;2023-04-29T02:38:29;16.90;96.70
45115;DHT22;30877;43.706;10.780;2023-04-29T02:40:57;16.80;96.70
45115;DHT22;30877;43.706;10.780;2023-04-29T02:43:27;16.80;96.70
45115;DHT22;30877;43.706;10.780;2023-04-29T02:45:58;16.80;96.70
45115;DHT22;30877;43.706;10.780;2023-04-29T02:48:27;16.80;96.70
45115;DHT22;30877;43.706;10.780;2023-04-29T02:50:55;16.90;96.70
45115;DHT22;30877;43.706;10.780;2023-04-29T02:53:23;16.90;96.70
45115;DHT22;30877;43.706;10.780;2023-04-29T02:55:51;16.80;96.70
45115;DHT22;30877;43.706;10.780;2023-04-29T02:58:19;16.80;96.70
45115;DHT22;30877;43.706;10.780;2023-04-29T03:00:49;16.80;96.70
45115;DHT22;30877;43.706;10.780;2023-04-29T03:03:17;16.80;96.70
45115;DHT22;30877;43.706;10.780;2023-04-29T03:05:46;16.80;96.70
45115;DHT22;30877;43.706;10.780;2023-04-29T03:08:14;16.80;96.70
45115;DHT22;30877;43.706;10.780;2023-04-29T03:10:42;16.80;96.70
45115;DHT22;30877;43.706;10.780;2023-04-29T03:13:10;16.80;96.70
45115;DHT22;30877;43.706;10.780;2023-04-29T03:15:38;16.80;96.70
45115;DHT22;30877;43.706;10.780;2023-04-29T03:18:08;16.80;96.70
45115;DHT22;30877;43.706;10.780;2023-04-29T03:20:37;16.80;96.70
45115;DHT22;30877;43.706;10.780;2023-04-29T03:23:05;16.80;96.70
45115;DHT22;30877;43.706;10.780;2023-04-29T03:25:33;16.70;96.70
45115;DHT22;30877;43.706;10.780;2023-04-29T03:28:01;16.80;96.70
45115;DHT22;30877;43.706;10.780;2023-04-29T03:30:30;16.80;96.70
45115;DHT22;30877;43.706;10.780;2023-04-29T03:32:58;16.70;96.70
45115;DHT22;30877;43.706;10.780;2023-04-29T03:35:30;16.60;96.70
45115;DHT22;30877;43.706;10.780;2023-04-29T03:38:24;16.60;96.70
45115;DHT22;30877;43.706;10.780;2023-04-29T03:40:55;16.60;96.70
45115;DHT22;30877;43.706;10.780;2023-04-29T03:43:23;16.60;96.70
45115;DHT22;30877;43.706;10.780;2023-04-29T03:45:51;16.60;96.70
45115;DHT22;30877;43.706;10.780;2023-04-29T03:48:22;16.60;96.70
45115;DHT22;30877;43.706;10.780;2023-04-29T03:50:53;16.50;96.70
45115;DHT22;30877;43.706;10.780;2023-04-29T03:53:21;16.50;96.70
45115;DHT22;30877;43.706;10.780;2023-04-29T03:55:50;16.50;96.70
45115;DHT22;30877;43.706;10.780;2023-04-29T03:58:18;16.40;96.70
45115;DHT22;30877;43.706;10.780;2023-04-29T04:00:46;16.40;96.70
45115;DHT22;30877;43.706;10.780;2023-04-29T04:03:21;16.40;96.70
45115;DHT22;30877;43.706;10.780;2023-04-29T04:05:52;16.50;96.70
45115;DHT22;30877;43.706;10.780;2023-04-29T04:08:24;16.40;96.70
45115;DHT22;30877;43.706;10.780;2023-04-29T04:10:58;16.50;96.70
45115;DHT22;30877;43.706;10.780;2023-04-29T04:13:41;16.50;96.70
45115;DHT22;30877;43.706;10.780;2023-04-29T04:16:10;16.50;96.70
45115;DHT22;30877;43.706;10.780;2023-04-29T04:18:39;16.50;96.70
45115;DHT22;30877;43.706;10.780;2023-04-29T04:21:10;16.50;96.70
45115;DHT22;30877;43.706;10.780;2023-04-29T04:23:41;16.50;96.70
45115;DHT22;30877;43.706;10.780;2023-04-29T04:26:14;16.50;96.70
45115;DHT22;30877;43.706;10.780;2023-04-29T04:28:53;16.50;96.70
45115;DHT22;30877;43.706;10.780;2023-04-29T04:31:48;16.50;96.70
45115;DHT22;30877;43.706;10.780;2023-04-29T04:34:19;16.40;96.70
45115;DHT22;30877;43.706;10.780;2023-04-29T04:36:51;16.40;96.70
45115;DHT22;30877;43.706;10.780;2023-04-29T04:39:19;16.40;96.70
45115;DHT22;30877;43.706;10.780;2023-04-29T04:41:47;16.40;96.70
45115;DHT22;30877;43.706;10.780;2023-04-29T04:44:15;16.40;96.70
45115;DHT22;30877;43.706;10.780;2023-04-29T04:46:56;16.40;96.70
45115;DHT22;30877;43.706;10.780;2023-04-29T04:49:40;16.30;96.70
45115;DHT22;30877;43.706;10.780;2023-04-29T04:52:09;16.30;96.70
45115;DHT22;30877;43.706;10.780;2023-04-29T04:54:39;16.30;96.70
45115;DHT22;30877;43.706;10.780;2023-04-29T04:57:15;16.30;96.70
45115;DHT22;30877;43.706;10.780;2023-04-29T04:59:44;16.30;96.70
45115;DHT22;30877;43.706;10.780;2023-04-29T05:02:12;16.30;96.70
45115;DHT22;30877;43.706;10.780;2023-04-29T05:04:40;16.30;96.70
45115;DHT22;30877;43.706;10.780;2023-04-29T05:07:11;16.30;96.70
45115;DHT22;30877;43.706;10.780;2023-04-29T05:09:57;16.30;96.70
45115;DHT22;30877;43.706;10.780;2023-04-29T05:12:27;16.40;96.70
45115;DHT22;30877;43.706;10.780;2023-04-29T05:14:58;16.40;96.70
45115;DHT22;30877;43.706;10.780;2023-04-29T05:17:28;16.50;96.70
45115;DHT22;30877;43.706;10.780;2023-04-29T05:19:57;16.50;96.70
45115;DHT22;30877;43.706;10.780;2023-04-29T05:22:26;16.50;96.70
45115;DHT22;30877;43.706;10.780;2023-04-29T05:24:54;16.50;96.70
45115;DHT22;30877;43.706;10.780;2023-04-29T05:27:31;16.60;96.70
45115;DHT22;30877;43.706;10.780;2023-04-29T05:30:01;16.60;96.70
45115;DHT22;30877;43.706;10.780;2023-04-29T05:32:29;16.60;96.70
45115;DHT22;30877;43.706;10.780;2023-04-29T05:34:57;16.60;96.70
45115;DHT22;30877;43.706;10.780;2023-04-29T05:37:27;16.70;96.70
45115;DHT22;30877;43.706;10.780;2023-04-29T05:40:14;16.70;96.70
45115;DHT22;30877;43.706;10.780;2023-04-29T05:42:42;16.70;96.70
45115;DHT22;30877;43.706;10.780;2023-04-29T05:45:12;16.70;96.70
45115;DHT22;30877;43.706;10.780;2023-04-29T05:47:40;16.70;96.70
45115;DHT22;30877;43.706;10.780;2023-04-29T05:50:08;16.80;96.70
45115;DHT22;30877;43.706;10.780;2023-04-29T05:52:37;16.80;96.70
45115;DHT22;30877;43.706;10.780;2023-04-29T05:55:05;16.80;96.70
45115;DHT22;30877;43.706;10.780;2023-04-29T05:57:33;16.80;96.70
45115;DHT22;30877;43.706;10.780;2023-04-29T06:00:02;16.80;96.70
45115;DHT22;30877;43.706;10.780;2023-04-29T06:02:39;16.80;96.70
45115;DHT22;30877;43.706;10.780;2023-04-29T06:05:24;16.90;96.70
45115;DHT22;30877;43.706;10.780;2023-04-29T06:08:08;17.00;96.70
45115;DHT22;30877;43.706;10.780;2023-04-29T06:10:51;17.00;96.70
45115;DHT22;30877;43.706;10.780;2023-04-29T06:13:20;17.10;96.70
45115;DHT22;30877;43.706;10.780;2023-04-29T06:15:48;17.10;96.70
45115;DHT22;30877;43.706;10.780;2023-04-29T06:18:18;17.20;96.70
45115;DHT22;30877;43.706;10.780;2023-04-29T06:20:46;17.20;96.70
45115;DHT22;30877;43.706;10.780;2023-04-29T06:23:16;17.20;96.70
45115;DHT22;30877;43.706;10.780;2023-04-29T06:25:44;17.30;96.70
45115;DHT22;30877;43.706;10.780;2023-04-29T06:28:13;17.40;96.70
45115;DHT22;30877;43.706;10.780;2023-04-29T06:30:41;17.40;96.70
45115;DHT22;30877;43.706;10.780;2023-04-29T06:33:10;17.30;96.70
45115;DHT22;30877;43.706;10.780;2023-04-29T06:35:39;17.20;96.70
45115;DHT22;30877;43.706;10.780;2023-04-29T06:38:39;17.20;96.70
45115;DHT22;30877;43.706;10.780;2023-04-29T06:41:28;17.30;96.70
45115;DHT22;30877;43.706;10.780;2023-04-29T06:44:12;17.50;96.70
45115;DHT22;30877;43.706;10.780;2023-04-29T06:46:40;17.50;96.70
45115;DHT22;30877;43.706;10.780;2023-04-29T06:49:16;17.60;96.70
45115;DHT22;30877;43.706;10.780;2023-04-29T06:51:44;17.70;96.70
45115;DHT22;30877;43.706;10.780;2023-04-29T06:54:14;17.70;96.70
45115;DHT22;30877;43.706;10.780;2023-04-29T06:56:42;17.70;96.70
45115;DHT22;30877;43.706;10.780;2023-04-29T06:59:10;17.70;96.70
45115;DHT22;30877;43.706;10.780;2023-04-29T07:01:39;17.80;96.70
45115;DHT22;30877;43.706;10.780;2023-04-29T07:04:10;17.80;96.70
45115;DHT22;30877;43.706;10.780;2023-04-29T07:06:40;17.70;96.70
45115;DHT22;30877;43.706;10.780;2023-04-29T07:09:08;17.80;96.70
45115;DHT22;30877;43.706;10.780;2023-04-29T07:11:38;17.80;96.70
45115;DHT22;30877;43.706;10.780;2023-04-29T07:14:06;17.70;96.70
45115;DHT22;30877;43.706;10.780;2023-04-29T07:16:35;17.80;96.70
45115;DHT22;30877;43.706;10.780;2023-04-29T07:19:08;17.90;96.70
45115;DHT22;30877;43.706;10.780;2023-04-29T07:21:38;17.90;96.70
45115;DHT22;30877;43.706;10.780;2023-04-29T07:24:07;18.00;96.70
45115;DHT22;30877;43.706;10.780;2023-04-29T07:26:35;18.00;96.70
45115;DHT22;30877;43.706;10.780;2023-04-29T07:29:04;18.00;96.70
45115;DHT22;30877;43.706;10.780;2023-04-29T07:31:34;18.20;96.70
45115;DHT22;30877;43.706;10.780;2023-04-29T07:34:05;18.20;96.70
45115;DHT22;30877;43.706;10.780;2023-04-29T07:36:33;18.20;96.70
45115;DHT22;30877;43.706;10.780;2023-04-29T07:39:02;18.20;96.70
45115;DHT22;30877;43.706;10.780;2023-04-29T07:41:31;18.30;96.70
45115;DHT22;30877;43.706;10.780;2023-04-29T07:44:00;18.40;96.70
45115;DHT22;30877;43.706;10.780;2023-04-29T07:46:31;18.30;96.70
45115;DHT22;30877;43.706;10.780;2023-04-29T07:48:59;18.30;96.70
45115;DHT22;30877;43.706;10.780;2023-04-29T07:51:28;18.50;96.70
45115;DHT22;30877;43.706;10.780;2023-04-29T07:53:57;18.60;96.70
45115;DHT22;30877;43.706;10.780;2023-04-29T07:56:26;18.60;96.70
45115;DHT22;30877;43.706;10.780;2023-04-29T08:07:24;18.70;96.70
45115;DHT22;30877;43.706;10.780;2023-04-29T08:09:52;18.90;96.70
45115;DHT22;30877;43.706;10.780;2023-04-29T08:12:20;19.00;96.70
45115;DHT22;30877;43.706;10.780;2023-04-29T08:14:49;19.00;96.70
45115;DHT22;30877;43.706;10.780;2023-04-29T08:17:17;18.90;96.70
45115;DHT22;30877;43.706;10.780;2023-04-29T08:19:45;19.00;96.70
45115;DHT22;30877;43.706;10.780;2023-04-29T08:22:14;19.10;96.70
45115;DHT22;30877;43.706;10.780;2023-04-29T08:24:44;19.20;96.70
45115;DHT22;30877;43.706;10.780;2023-04-29T08:27:13;19.30;96.70
45115;DHT22;30877;43.706;10.780;2023-04-29T08:29:42;19.30;96.70
45115;DHT22;30877;43.706;10.780;2023-04-29T08:32:10;19.50;96.70
45115;DHT22;30877;43.706;10.780;2023-04-29T08:34:39;19.70;96.70
45115;DHT22;30877;43.706;10.780;2023-04-29T08:37:08;19.80;96.70
45115;DHT22;30877;43.706;10.780;2023-04-29T08:39:37;19.80;96.70
45115;DHT22;30877;43.706;10.780;2023-04-29T08:42:09;19.80;96.70
45115;DHT22;30877;43.706;10.780;2023-04-29T08:44:39;19.80;96.70
45115;DHT22;30877;43.706;10.780;2023-04-29T08:47:09;19.80;96.70
45115;DHT22;30877;43.706;10.780;2023-04-29T08:49:37;19.80;96.70
45115;DHT22;30877;43.706;10.780;2023-04-29T08:52:06;19.90;96.70
45115;DHT22;30877;43.706;10.780;2023-04-29T08:54:34;19.90;96.70
45115;DHT22;30877;43.706;10.780;2023-04-29T08:57:04;19.90;96.70
45115;DHT22;30877;43.706;10.780;2023-04-29T08:59:35;20.00;96.70
45115;DHT22;30877;43.706;10.780;2023-04-29T09:02:05;20.10;96.70
45115;DHT22;30877;43.706;10.780;2023-04-29T09:04:40;20.10;96.70
45115;DHT22;30877;43.706;10.780;2023-04-29T09:07:10;20.20;96.70
45115;DHT22;30877;43.706;10.780;2023-04-29T09:09:40;20.30;96.70
45115;DHT22;30877;43.706;10.780;2023-04-29T09:12:09;20.40;96.70
45115;DHT22;30877;43.706;10.780;2023-04-29T09:14:39;20.40;96.70
45115;DHT22;30877;43.706;10.780;2023-04-29T09:17:07;20.40;96.70
45115;DHT22;30877;43.706;10.780;2023-04-29T09:19:41;20.30;96.70
45115;DHT22;30877;43.706;10.780;2023-04-29T09:22:11;20.20;96.70
45115;DHT22;30877;43.706;10.780;2023-04-29T09:24:39;20.20;96.70
45115;DHT22;30877;43.706;10.780;2023-04-29T09:27:07;20.10;96.70
45115;DHT22;30877;43.706;10.780;2023-04-29T09:29:35;20.10;96.70
45115;DHT22;30877;43.706;10.780;2023-04-29T09:32:22;20.00;96.70
45115;DHT22;30877;43.706;10.780;2023-04-29T09:34:50;20.00;96.70
45115;DHT22;30877;43.706;10.780;2023-04-29T09:37:26;20.00;96.70
45115;DHT22;30877;43.706;10.780;2023-04-29T09:39:54;20.00;96.70
45115;DHT22;30877;43.706;10.780;2023-04-29T09:42:23;20.00;96.70
45115;DHT22;30877;43.706;10.780;2023-04-29T09:44:51;20.00;96.70
45115;DHT22;30877;43.706;10.780;2023-04-29T09:47:30;20.00;96.70
45115;DHT22;30877;43.706;10.780;2023-04-29T09:50:10;19.90;96.70
45115;DHT22;30877;43.706;10.780;2023-04-29T09:52:40;19.90;96.70
45115;DHT22;30877;43.706;10.780;2023-04-29T09:55:11;19.90;96.70
45115;DHT22;30877;43.706;10.780;2023-04-29T09:57:43;19.90;96.70
45115;DHT22;30877;43.706;10.780;2023-04-29T10:00:13;19.90;96.70
45115;DHT22;30877;43.706;10.780;2023-04-29T10:02:47;20.00;96.70
45115;DHT22;30877;43.706;10.780;2023-04-29T10:05:16;20.00;96.70
45115;DHT22;30877;43.706;10.780;2023-04-29T10:07:46;20.00;96.70
45115;DHT22;30877;43.706;10.780;2023-04-29T10:10:18;19.90;96.70
45115;DHT22;30877;43.706;10.780;2023-04-29T10:12:49;19.80;96.70
45115;DHT22;30877;43.706;10.780;2023-04-29T10:15:24;19.80;96.70
45115;DHT22;30877;43.706;10.780;2023-04-29T10:18:00;19.80;96.70
45115;DHT22;30877;43.706;10.780;2023-04-29T10:20:30;19.70;96.70
45115;DHT22;30877;43.706;10.780;2023-04-29T10:23:00;19.70;96.70
45115;DHT22;30877;43.706;10.780;2023-04-29T10:25:30;19.70;96.70
45115;DHT22;30877;43.706;10.780;2023-04-29T10:27:59;19.70;96.70
45115;DHT22;30877;43.706;10.780;2023-04-29T10:30:29;19.70;96.70
45115;DHT22;30877;43.706;10.780;2023-04-29T10:33:00;19.70;96.70
45115;DHT22;30877;43.706;10.780;2023-04-29T10:35:30;19.70;96.70
45115;DHT22;30877;43.706;10.780;2023-04-29T10:37:59;19.70;96.70
45115;DHT22;30877;43.706;10.780;2023-04-29T10:40:37;19.80;96.70
45115;DHT22;30877;43.706;10.780;2023-04-29T10:43:08;19.80;96.70
45115;DHT22;30877;43.706;10.780;2023-04-29T10:45:39;19.80;96.70
45115;DHT22;30877;43.706;10.780;2023-04-29T10:48:13;19.90;96.70
45115;DHT22;30877;43.706;10.780;2023-04-29T10:51:03;20.00;96.70
45115;DHT22;30877;43.706;10.780;2023-04-29T10:53:32;20.10;96.70
45115;DHT22;30877;43.706;10.780;2023-04-29T10:56:07;20.20;96.70
45115;DHT22;30877;43.706;10.780;2023-04-29T10:58:37;20.30;96.70
45115;DHT22;30877;43.706;10.780;2023-04-29T11:01:06;20.50;96.70
45115;DHT22;30877;43.706;10.780;2023-04-29T11:03:52;20.70;96.70
45115;DHT22;30877;43.706;10.780;2023-04-29T11:06:38;20.70;96.70
45115;DHT22;30877;43.706;10.780;2023-04-29T11:09:09;21.00;96.70
45115;DHT22;30877;43.706;10.780;2023-04-29T11:12:00;21.20;96.70
45115;DHT22;30877;43.706;10.780;2023-04-29T11:14:34;21.50;96.70
45115;DHT22;30877;43.706;10.780;2023-04-29T11:17:04;21.80;96.70
45115;DHT22;30877;43.706;10.780;2023-04-29T11:19:39;22.00;96.70
45115;DHT22;30877;43.706;10.780;2023-04-29T11:22:10;21.90;96.70
45115;DHT22;30877;43.706;10.780;2023-04-29T11:24:49;21.90;96.70
45115;DHT22;30877;43.706;10.780;2023-04-29T11:27:20;21.80;96.70
45115;DHT22;30877;43.706;10.780;2023-04-29T11:29:52;21.80;96.70
45115;DHT22;30877;43.706;10.780;2023-04-29T11:32:28;21.90;96.70
45115;DHT22;30877;43.706;10.780;2023-04-29T11:35:08;21.80;96.70
45115;DHT22;30877;43.706;10.780;2023-04-29T11:37:37;21.70;96.70
45115;DHT22;30877;43.706;10.780;2023-04-29T11:40:07;22.00;96.70
45115;DHT22;30877;43.706;10.780;2023-04-29T11:42:42;22.20;96.70
45115;DHT22;30877;43.706;10.780;2023-04-29T11:45:11;22.30;96.70
45115;DHT22;30877;43.706;10.780;2023-04-29T11:47:42;22.30;96.70
45115;DHT22;30877;43.706;10.780;2023-04-29T11:50:15;22.30;96.70
45115;DHT22;30877;43.706;10.780;2023-04-29T11:52:47;22.40;96.70
45115;DHT22;30877;43.706;10.780;2023-04-29T11:55:16;22.70;96.70
45115;DHT22;30877;43.706;10.780;2023-04-29T11:57:48;22.60;96.70
45115;DHT22;30877;43.706;10.780;2023-04-29T12:00:18;22.70;96.70
45115;DHT22;30877;43.706;10.780;2023-04-29T12:02:46;22.70;96.70
45115;DHT22;30877;43.706;10.780;2023-04-29T12:05:16;22.70;96.70
45115;DHT22;30877;43.706;10.780;2023-04-29T12:07:48;23.00;96.70
45115;DHT22;30877;43.706;10.780;2023-04-29T12:10:19;23.30;96.70
45115;DHT22;30877;43.706;10.780;2023-04-29T12:12:48;23.40;96.70
45115;DHT22;30877;43.706;10.780;2023-04-29T12:15:16;23.70;96.70
45115;DHT22;30877;43.706;10.780;2023-04-29T12:17:45;23.80;96.70
45115;DHT22;30877;43.706;10.780;2023-04-29T12:20:17;23.70;96.70
45115;DHT22;30877;43.706;10.780;2023-04-29T12:22:46;23.40;96.70
45115;DHT22;30877;43.706;10.780;2023-04-29T12:25:15;23.30;96.70
45115;DHT22;30877;43.706;10.780;2023-04-29T12:27:45;23.20;96.70
45115;DHT22;30877;43.706;10.780;2023-04-29T12:30:13;23.00;96.70
45115;DHT22;30877;43.706;10.780;2023-04-29T12:32:42;22.90;96.70
45115;DHT22;30877;43.706;10.780;2023-04-29T12:35:18;22.70;96.70
45115;DHT22;30877;43.706;10.780;2023-04-29T12:37:49;22.70;96.70
45115;DHT22;30877;43.706;10.780;2023-04-29T12:40:18;22.60;96.70
45115;DHT22;30877;43.706;10.780;2023-04-29T12:42:47;22.60;96.70
45115;DHT22;30877;43.706;10.780;2023-04-29T12:45:27;22.60;96.70
45115;DHT22;30877;43.706;10.780;2023-04-29T12:47:56;22.50;96.70
45115;DHT22;30877;43.706;10.780;2023-04-29T12:50:32;22.50;96.70
45115;DHT22;30877;43.706;10.780;2023-04-29T12:53:33;22.40;96.70
45115;DHT22;30877;43.706;10.780;2023-04-29T12:56:01;22.60;96.70
45115;DHT22;30877;43.706;10.780;2023-04-29T12:58:30;22.80;96.70
45115;DHT22;30877;43.706;10.780;2023-04-29T13:00:59;23.20;96.70
45115;DHT22;30877;43.706;10.780;2023-04-29T13:03:28;23.60;96.70
45115;DHT22;30877;43.706;10.780;2023-04-29T13:05:58;23.90;96.70
45115;DHT22;30877;43.706;10.780;2023-04-29T13:08:27;24.00;96.70
45115;DHT22;30877;43.706;10.780;2023-04-29T13:11:03;24.10;96.70
45115;DHT22;30877;43.706;10.780;2023-04-29T13:13:31;24.20;96.70
45115;DHT22;30877;43.706;10.780;2023-04-29T13:16:00;24.30;96.70
45115;DHT22;30877;43.706;10.780;2023-04-29T13:18:29;24.30;96.70
45115;DHT22;30877;43.706;10.780;2023-04-29T13:21:03;24.30;96.70
45115;DHT22;30877;43.706;10.780;2023-04-29T13:23:31;24.30;96.70
45115;DHT22;30877;43.706;10.780;2023-04-29T13:26:00;24.20;96.70
45115;DHT22;30877;43.706;10.780;2023-04-29T13:28:29;24.30;96.70
45115;DHT22;30877;43.706;10.780;2023-04-29T13:30:57;24.30;96.70
45115;DHT22;30877;43.706;10.780;2023-04-29T13:33:25;24.30;96.70
45115;DHT22;30877;43.706;10.780;2023-04-29T13:35:55;24.10;96.70
45115;DHT22;30877;43.706;10.780;2023-04-29T13:38:25;23.90;96.70
45115;DHT22;30877;43.706;10.780;2023-04-29T13:40:55;23.90;96.70
45115;DHT22;30877;43.706;10.780;2023-04-29T13:43:23;23.80;96.70
45115;DHT22;30877;43.706;10.780;2023-04-29T13:46:04;23.70;96.70
45115;DHT22;30877;43.706;10.780;2023-04-29T13:48:34;23.80;96.70
45115;DHT22;30877;43.706;10.780;2023-04-29T13:51:23;23.90;96.70
45115;DHT22;30877;43.706;10.780;2023-04-29T13:54:13;24.00;96.70
45115;DHT22;30877;43.706;10.780;2023-04-29T13:56:44;24.10;96.70
45115;DHT22;30877;43.706;10.780;2023-04-29T13:59:15;24.20;96.70
45115;DHT22;30877;43.706;10.780;2023-04-29T14:01:46;24.40;96.70
45115;DHT22;30877;43.706;10.780;2023-04-29T14:04:18;24.80;96.70
45115;DHT22;30877;43.706;10.780;2023-04-29T14:06:47;25.20;96.70
45115;DHT22;30877;43.706;10.780;2023-04-29T14:09:17;25.30;96.70
45115;DHT22;30877;43.706;10.780;2023-04-29T14:11:47;25.80;96.70
45115;DHT22;30877;43.706;10.780;2023-04-29T14:14:16;26.30;96.70
45115;DHT22;30877;43.706;10.780;2023-04-29T14:16:45;26.80;96.70
45115;DHT22;30877;43.706;10.780;2023-04-29T14:19:13;26.80;96.70
45115;DHT22;30877;43.706;10.780;2023-04-29T14:21:42;26.50;96.70
45115;DHT22;30877;43.706;10.780;2023-04-29T14:24:11;26.50;96.70
45115;DHT22;30877;43.706;10.780;2023-04-29T14:26:41;27.20;96.70
45115;DHT22;30877;43.706;10.780;2023-04-29T14:29:10;27.50;96.70
45115;DHT22;30877;43.706;10.780;2023-04-29T14:31:38;27.20;96.70
45115;DHT22;30877;43.706;10.780;2023-04-29T14:34:07;27.00;96.70
45115;DHT22;30877;43.706;10.780;2023-04-29T14:36:35;26.60;96.70
45115;DHT22;30877;43.706;10.780;2023-04-29T14:39:04;25.80;96.70
45115;DHT22;30877;43.706;10.780;2023-04-29T14:41:32;25.50;96.70
45115;DHT22;30877;43.706;10.780;2023-04-29T14:44:02;25.00;96.70
45115;DHT22;30877;43.706;10.780;2023-04-29T14:46:31;24.70;96.70
45115;DHT22;30877;43.706;10.780;2023-04-29T14:48:59;24.40;96.70
45115;DHT22;30877;43.706;10.780;2023-04-29T14:51:28;24.30;96.70
45115;DHT22;30877;43.706;10.780;2023-04-29T14:53:58;24.40;96.70
45115;DHT22;30877;43.706;10.780;2023-04-29T14:56:26;23.90;96.70
45115;DHT22;30877;43.706;10.780;2023-04-29T14:58:55;23.50;96.70
45115;DHT22;30877;43.706;10.780;2023-04-29T15:01:25;23.20;96.70
45115;DHT22;30877;43.706;10.780;2023-04-29T15:03:58;23.10;96.70
45115;DHT22;30877;43.706;10.780;2023-04-29T15:06:26;23.10;96.70
45115;DHT22;30877;43.706;10.780;2023-04-29T15:08:55;23.00;96.70
45115;DHT22;30877;43.706;10.780;2023-04-29T15:11:23;22.80;96.70
45115;DHT22;30877;43.706;10.780;2023-04-29T15:13:52;22.80;96.70
45115;DHT22;30877;43.706;10.780;2023-04-29T15:16:21;22.80;96.70
45115;DHT22;30877;43.706;10.780;2023-04-29T15:18:51;22.70;96.70
45115;DHT22;30877;43.706;10.780;2023-04-29T15:21:19;22.60;96.70
45115;DHT22;30877;43.706;10.780;2023-04-29T15:23:48;22.60;96.70
45115;DHT22;30877;43.706;10.780;2023-04-29T15:26:16;22.50;96.70
45115;DHT22;30877;43.706;10.780;2023-04-29T15:28:45;22.40;96.70
45115;DHT22;30877;43.706;10.780;2023-04-29T15:31:13;22.50;96.70
45115;DHT22;30877;43.706;10.780;2023-04-29T15:33:41;22.70;96.70
45115;DHT22;30877;43.706;10.780;2023-04-29T15:36:11;22.80;96.70
45115;DHT22;30877;43.706;10.780;2023-04-29T15:38:40;22.90;96.70
45115;DHT22;30877;43.706;10.780;2023-04-29T15:41:08;22.70;96.70
45115;DHT22;30877;43.706;10.780;2023-04-29T15:43:37;22.60;96.70
45115;DHT22;30877;43.706;10.780;2023-04-29T15:46:07;22.50;96.70
45115;DHT22;30877;43.706;10.780;2023-04-29T15:48:36;22.50;96.70